Thunder radar more information blitzortung!


avis per Pluja more information rain snow radar


Visita la nostra xarxa de llocs de meteo:

Template documentation
and downloads

And another site



Rain From: 18-11-2018 11:00 Until: 20:59 warning for: Rain Level: Yellow info button

Pagina Historial Weather Underground text

Diari Resum January 27, 2018 Unitats:  Tant    Imperial   Mètric
« Previous Dia
SegĂźent Dia »
Diari Setmana Mensual Anual Personalitzada
  Maxima: Minima: Media:
Temperatura: TemperatureF °F /  -17.8 °C 38.5 °F /  3.6 °C 44.1 °F /  6.7 °C
Punt de rosada: DewpointF °F /  -17.8 °C 35.5 °F /  1.9 °C 37.7 °F /  3.2 °C
Humitat: Humidity % 64 % 79 %
Wind Speed: WindSpeedMPH mph /  0 km/h - 1.6 mph /  2.6 km/h
RĂ fegues de vent: WindSpeedGustMPH mph /  0 km/h - -
Vent:- - ESE
Pression baro: PressureIn in /  0 hPa 30.15 in /  1020.9 hPa -
Precipitacions: 0.00 in /  0 mm    
Historical Graphs
 
 
Dades de taula per January 27, 2018
Temps Temperatura Punt de rosada Pression baro Vent Wind Speed RĂ fegues de vent Humitat Rainfall Rate (Hourly)
TemperatureF °F /  -17.8 °C DewpointF °F /  -17.8 °C PressureIn in /  0 hPa Calm     Humidity % HourlyPrecipIn in /  0 mm
00:00 39.9 °F /  4.4 °C 36.9 °F /  2.7 °C 30.15 in /  1020.9 hPa Calm     89 % 0.00 in /  0 mm
00:05 39.9 °F /  4.4 °C 36.9 °F /  2.7 °C 30.18 in /  1021.9 hPa Calm     89 % 0.00 in /  0 mm
00:10 39.9 °F /  4.4 °C 36.9 °F /  2.7 °C 30.18 in /  1021.9 hPa Calm     89 % 0.00 in /  0 mm
00:15 39.9 °F /  4.4 °C 36.9 °F /  2.7 °C 30.18 in /  1021.9 hPa Calm     89 % 0.00 in /  0 mm
00:20 39.9 °F /  4.4 °C 36.9 °F /  2.7 °C 30.18 in /  1021.9 hPa Calm     89 % 0.00 in /  0 mm
00:25 39.9 °F /  4.4 °C 36.9 °F /  2.7 °C 30.18 in /  1021.9 hPa Calm     89 % 0.00 in /  0 mm
00:30 39.8 °F /  4.3 °C 36.8 °F /  2.7 °C 30.18 in /  1021.9 hPa East 1.0 mph /  1.6 km/h 2.0 mph /  3.2 km/h 89 % 0.00 in /  0 mm
00:35 39.7 °F /  4.3 °C 36.8 °F /  2.7 °C 30.15 in /  1020.9 hPa Calm   1.0 mph /  1.6 km/h 89 % 0.00 in /  0 mm
00:40 39.9 °F /  4.4 °C 36.9 °F /  2.7 °C 30.15 in /  1020.9 hPa Calm   1.0 mph /  1.6 km/h 89 % 0.00 in /  0 mm
00:45 39.9 °F /  4.4 °C 36.9 °F /  2.7 °C 30.15 in /  1020.9 hPa Calm     89 % 0.00 in /  0 mm
00:50 39.9 °F /  4.4 °C 36.9 °F /  2.7 °C 30.18 in /  1021.9 hPa Calm     89 % 0.00 in /  0 mm
00:55 39.9 °F /  4.4 °C 36.9 °F /  2.7 °C 30.18 in /  1021.9 hPa Calm     89 % 0.00 in /  0 mm
01:00 39.9 °F /  4.4 °C 36.9 °F /  2.7 °C 30.18 in /  1021.9 hPa Calm     89 % 0.00 in /  0 mm
01:05 39.9 °F /  4.4 °C 36.9 °F /  2.7 °C 30.18 in /  1021.9 hPa Calm     89 % 0.00 in /  0 mm
01:10 39.9 °F /  4.4 °C 36.9 °F /  2.7 °C 30.18 in /  1021.9 hPa Calm     89 % 0.00 in /  0 mm
01:15 39.9 °F /  4.4 °C 36.9 °F /  2.7 °C 30.18 in /  1021.9 hPa Calm     89 % 0.00 in /  0 mm
01:20 39.9 °F /  4.4 °C 36.9 °F /  2.7 °C 30.15 in /  1020.9 hPa Calm     89 % 0.00 in /  0 mm
01:25 39.9 °F /  4.4 °C 36.9 °F /  2.7 °C 30.15 in /  1020.9 hPa Calm     89 % 0.00 in /  0 mm
01:30 39.9 °F /  4.4 °C 36.9 °F /  2.7 °C 30.15 in /  1020.9 hPa Calm     89 % 0.00 in /  0 mm
01:35 39.9 °F /  4.4 °C 36.9 °F /  2.7 °C 30.18 in /  1021.9 hPa Calm     89 % 0.00 in /  0 mm
01:40 39.9 °F /  4.4 °C 36.9 °F /  2.7 °C 30.18 in /  1021.9 hPa Calm     89 % 0.00 in /  0 mm
01:45 39.8 °F /  4.3 °C 36.8 °F /  2.7 °C 30.18 in /  1021.9 hPa Calm     89 % 0.00 in /  0 mm
01:50 39.7 °F /  4.3 °C 36.8 °F /  2.7 °C 30.18 in /  1021.9 hPa NE 1.2 mph /  1.9 km/h 1.2 mph /  1.9 km/h 89 % 0.00 in /  0 mm
01:55 39.6 °F /  4.2 °C 36.6 °F /  2.6 °C 30.18 in /  1021.9 hPa Calm     89 % 0.00 in /  0 mm
02:00 39.6 °F /  4.2 °C 36.6 °F /  2.6 °C 30.18 in /  1021.9 hPa Calm     89 % 0.00 in /  0 mm
02:05 39.4 °F /  4.1 °C 36.4 °F /  2.4 °C 30.18 in /  1021.9 hPa SW 2.3 mph /  3.7 km/h 2.3 mph /  3.7 km/h 89 % 0.00 in /  0 mm
02:10 39.4 °F /  4.1 °C 36.4 °F /  2.4 °C 30.18 in /  1021.9 hPa Calm     89 % 0.00 in /  0 mm
02:15 39.4 °F /  4.1 °C 36.4 °F /  2.4 °C 30.18 in /  1021.9 hPa WSW 1.2 mph /  1.9 km/h   89 % 0.00 in /  0 mm
02:20 39.4 °F /  4.1 °C 36.4 °F /  2.4 °C 30.15 in /  1020.9 hPa Calm     89 % 0.00 in /  0 mm
02:25 39.4 °F /  4.1 °C 36.4 °F /  2.4 °C 30.15 in /  1020.9 hPa NE 2.3 mph /  3.7 km/h 2.3 mph /  3.7 km/h 89 % 0.00 in /  0 mm
02:30 39.4 °F /  4.1 °C 36.4 °F /  2.4 °C 30.15 in /  1020.9 hPa Calm     89 % 0.00 in /  0 mm
02:35 39.6 °F /  4.2 °C 36.6 °F /  2.6 °C 30.18 in /  1021.9 hPa NE 1.6 mph /  2.6 km/h 1.6 mph /  2.6 km/h 89 % 0.00 in /  0 mm
02:40 39.6 °F /  4.2 °C 36.6 °F /  2.6 °C 30.18 in /  1021.9 hPa Calm     89 % 0.00 in /  0 mm
02:45 39.6 °F /  4.2 °C 36.6 °F /  2.6 °C 30.18 in /  1021.9 hPa NE 2.3 mph /  3.7 km/h 2.3 mph /  3.7 km/h 89 % 0.00 in /  0 mm
02:50 39.6 °F /  4.2 °C 36.6 °F /  2.6 °C 30.18 in /  1021.9 hPa NNE 2.3 mph /  3.7 km/h 2.3 mph /  3.7 km/h 89 % 0.00 in /  0 mm
02:55 39.4 °F /  4.1 °C 36.4 °F /  2.4 °C 30.18 in /  1021.9 hPa NNE 2.3 mph /  3.7 km/h 2.3 mph /  3.7 km/h 89 % 0.00 in /  0 mm
03:00 39.4 °F /  4.1 °C 36.4 °F /  2.4 °C 30.18 in /  1021.9 hPa NE 2.3 mph /  3.7 km/h 2.3 mph /  3.7 km/h 89 % 0.00 in /  0 mm
03:05 39.4 °F /  4.1 °C 36.4 °F /  2.4 °C 30.18 in /  1021.9 hPa Calm     89 % 0.00 in /  0 mm
03:10 39.4 °F /  4.1 °C 36.4 °F /  2.4 °C 30.18 in /  1021.9 hPa Calm     89 % 0.00 in /  0 mm
03:15 39.4 °F /  4.1 °C 36.4 °F /  2.4 °C 30.18 in /  1021.9 hPa Calm     89 % 0.00 in /  0 mm
03:20 39.4 °F /  4.1 °C 36.4 °F /  2.4 °C 30.18 in /  1021.9 hPa Calm     89 % 0.00 in /  0 mm
03:25 39.4 °F /  4.1 °C 36.4 °F /  2.4 °C 30.18 in /  1021.9 hPa Calm     89 % 0.00 in /  0 mm
03:30 39.4 °F /  4.1 °C 36.4 °F /  2.4 °C 30.18 in /  1021.9 hPa Calm     89 % 0.00 in /  0 mm
03:35 39.4 °F /  4.1 °C 36.4 °F /  2.4 °C 30.18 in /  1021.9 hPa Calm     89 % 0.00 in /  0 mm
03:40 39.4 °F /  4.1 °C 36.4 °F /  2.4 °C 30.18 in /  1021.9 hPa Calm     89 % 0.00 in /  0 mm
03:45 39.4 °F /  4.1 °C 36.4 °F /  2.4 °C 30.18 in /  1021.9 hPa Calm     89 % 0.00 in /  0 mm
03:50 39.4 °F /  4.1 °C 36.4 °F /  2.4 °C 30.18 in /  1021.9 hPa Calm     89 % 0.00 in /  0 mm
03:55 39.4 °F /  4.1 °C 36.4 °F /  2.4 °C 30.18 in /  1021.9 hPa Calm     89 % 0.00 in /  0 mm
04:00 39.4 °F /  4.1 °C 36.4 °F /  2.4 °C 30.18 in /  1021.9 hPa Calm     89 % 0.00 in /  0 mm
04:05 39.4 °F /  4.1 °C 36.4 °F /  2.4 °C 30.18 in /  1021.9 hPa Calm     89 % 0.00 in /  0 mm
04:10 39.4 °F /  4.1 °C 36.4 °F /  2.4 °C 30.18 in /  1021.9 hPa Calm     89 % 0.00 in /  0 mm
04:15 39.4 °F /  4.1 °C 36.7 °F /  2.6 °C 30.18 in /  1021.9 hPa Calm     90 % 0.00 in /  0 mm
04:20 39.4 °F /  4.1 °C 36.7 °F /  2.6 °C 30.18 in /  1021.9 hPa Calm     90 % 0.00 in /  0 mm
04:25 39.6 °F /  4.2 °C 36.9 °F /  2.7 °C 30.18 in /  1021.9 hPa Calm     90 % 0.00 in /  0 mm
04:30 39.6 °F /  4.2 °C 36.9 °F /  2.7 °C 30.18 in /  1021.9 hPa Calm     90 % 0.00 in /  0 mm
04:35 39.6 °F /  4.2 °C 36.9 °F /  2.7 °C 30.18 in /  1021.9 hPa Calm     90 % 0.00 in /  0 mm
04:40 39.6 °F /  4.2 °C 36.9 °F /  2.7 °C 30.18 in /  1021.9 hPa Calm     90 % 0.00 in /  0 mm
04:45 39.6 °F /  4.2 °C 36.9 °F /  2.7 °C 30.18 in /  1021.9 hPa Calm     90 % 0.00 in /  0 mm
04:50 39.6 °F /  4.2 °C 36.9 °F /  2.7 °C 30.18 in /  1021.9 hPa Calm     90 % 0.00 in /  0 mm
04:55 39.6 °F /  4.2 °C 36.9 °F /  2.7 °C 30.18 in /  1021.9 hPa Calm     90 % 0.00 in /  0 mm
05:00 39.6 °F /  4.2 °C 36.9 °F /  2.7 °C 30.18 in /  1021.9 hPa Calm     90 % 0.00 in /  0 mm
05:05 39.7 °F /  4.3 °C 37.0 °F /  2.8 °C 30.18 in /  1021.9 hPa Calm     90 % 0.00 in /  0 mm
05:10 39.7 °F /  4.3 °C 37.0 °F /  2.8 °C 30.18 in /  1021.9 hPa WSW 1.2 mph /  1.9 km/h   90 % 0.00 in /  0 mm
05:15 39.7 °F /  4.3 °C 37.0 °F /  2.8 °C 30.18 in /  1021.9 hPa WSW 2.0 mph /  3.2 km/h 2.0 mph /  3.2 km/h 90 % 0.00 in /  0 mm
05:20 39.7 °F /  4.3 °C 37.0 °F /  2.8 °C 30.21 in /  1022.9 hPa Calm     90 % 0.00 in /  0 mm
05:25 39.7 °F /  4.3 °C 37.0 °F /  2.8 °C 30.21 in /  1022.9 hPa Calm     90 % 0.00 in /  0 mm
05:30 39.7 °F /  4.3 °C 37.0 °F /  2.8 °C 30.21 in /  1022.9 hPa SW 1.2 mph /  1.9 km/h 1.2 mph /  1.9 km/h 90 % 0.00 in /  0 mm
05:35 39.7 °F /  4.3 °C 37.0 °F /  2.8 °C 30.21 in /  1022.9 hPa NW 1.2 mph /  1.9 km/h 1.2 mph /  1.9 km/h 90 % 0.00 in /  0 mm
05:40 39.7 °F /  4.3 °C 37.0 °F /  2.8 °C 30.21 in /  1022.9 hPa NNE 1.2 mph /  1.9 km/h   90 % 0.00 in /  0 mm
05:45 39.7 °F /  4.3 °C 37.0 °F /  2.8 °C 30.21 in /  1022.9 hPa NNE 1.2 mph /  1.9 km/h   90 % 0.00 in /  0 mm
05:50 39.6 °F /  4.2 °C 36.9 °F /  2.7 °C 30.21 in /  1022.9 hPa Calm     90 % 0.00 in /  0 mm
05:55 39.6 °F /  4.2 °C 36.9 °F /  2.7 °C 30.21 in /  1022.9 hPa NNE 1.2 mph /  1.9 km/h 1.2 mph /  1.9 km/h 90 % 0.00 in /  0 mm
06:00 39.4 °F /  4.1 °C 36.7 °F /  2.6 °C 30.21 in /  1022.9 hPa NNW 1.2 mph /  1.9 km/h 1.2 mph /  1.9 km/h 90 % 0.00 in /  0 mm
06:05 39.4 °F /  4.1 °C 36.7 °F /  2.6 °C 30.21 in /  1022.9 hPa Calm     90 % 0.00 in /  0 mm
06:10 39.4 °F /  4.1 °C 36.4 °F /  2.4 °C 30.21 in /  1022.9 hPa WSW 2.3 mph /  3.7 km/h 2.3 mph /  3.7 km/h 89 % 0.00 in /  0 mm
06:15 39.4 °F /  4.1 °C 36.4 °F /  2.4 °C 30.21 in /  1022.9 hPa NNW 1.2 mph /  1.9 km/h   89 % 0.00 in /  0 mm
06:20 39.4 °F /  4.1 °C 36.4 °F /  2.4 °C 30.21 in /  1022.9 hPa ESE 2.0 mph /  3.2 km/h 2.0 mph /  3.2 km/h 89 % 0.00 in /  0 mm
06:25 39.4 °F /  4.1 °C 36.7 °F /  2.6 °C 30.21 in /  1022.9 hPa WSW 2.3 mph /  3.7 km/h 2.3 mph /  3.7 km/h 90 % 0.00 in /  0 mm
06:30 39.2 °F /  4 °C 36.2 °F /  2.3 °C 30.21 in /  1022.9 hPa Calm     89 % 0.00 in /  0 mm
06:35 39.2 °F /  4 °C 36.2 °F /  2.3 °C 30.24 in /  1023.9 hPa WNW 1.2 mph /  1.9 km/h   89 % 0.00 in /  0 mm
06:40 39.2 °F /  4 °C 36.2 °F /  2.3 °C 30.24 in /  1023.9 hPa Calm     89 % 0.00 in /  0 mm
06:45 39.2 °F /  4 °C 36.2 °F /  2.3 °C 30.24 in /  1023.9 hPa ENE 1.4 mph /  2.3 km/h   89 % 0.00 in /  0 mm
06:50 39.0 °F /  3.9 °C 36.1 °F /  2.3 °C 30.21 in /  1022.9 hPa Calm     89 % 0.00 in /  0 mm
06:55 39.0 °F /  3.9 °C 36.1 °F /  2.3 °C 30.21 in /  1022.9 hPa Calm     89 % 0.00 in /  0 mm
07:00 38.8 °F /  3.8 °C 35.9 °F /  2.2 °C 30.21 in /  1022.9 hPa Calm     89 % 0.00 in /  0 mm
07:05 38.8 °F /  3.8 °C 35.9 °F /  2.2 °C 30.24 in /  1023.9 hPa Calm     89 % 0.00 in /  0 mm
07:10 38.8 °F /  3.8 °C 35.9 °F /  2.2 °C 30.24 in /  1023.9 hPa WNW 1.2 mph /  1.9 km/h   89 % 0.00 in /  0 mm
07:15 38.7 °F /  3.7 °C 35.7 °F /  2.1 °C 30.24 in /  1023.9 hPa Calm     89 % 0.00 in /  0 mm
07:20 38.7 °F /  3.7 °C 35.7 °F /  2.1 °C 30.24 in /  1023.9 hPa Calm     89 % 0.00 in /  0 mm
07:25 38.7 °F /  3.7 °C 35.7 °F /  2.1 °C 30.24 in /  1023.9 hPa SW 1.4 mph /  2.3 km/h 1.4 mph /  2.3 km/h 89 % 0.00 in /  0 mm
07:30 38.5 °F /  3.6 °C 35.5 °F /  1.9 °C 30.24 in /  1023.9 hPa SW 2.3 mph /  3.7 km/h 2.3 mph /  3.7 km/h 89 % 0.00 in /  0 mm
07:35 38.5 °F /  3.6 °C 35.5 °F /  1.9 °C 30.24 in /  1023.9 hPa Calm     89 % 0.00 in /  0 mm
07:40 38.7 °F /  3.7 °C 35.7 °F /  2.1 °C 30.24 in /  1023.9 hPa NE 2.3 mph /  3.7 km/h 2.3 mph /  3.7 km/h 89 % 0.00 in /  0 mm
07:45 38.7 °F /  3.7 °C 35.7 °F /  2.1 °C 30.24 in /  1023.9 hPa NW 2.3 mph /  3.7 km/h 2.3 mph /  3.7 km/h 89 % 0.00 in /  0 mm
07:50 38.7 °F /  3.7 °C 35.7 °F /  2.1 °C 30.24 in /  1023.9 hPa Calm     89 % 0.00 in /  0 mm
07:55 38.8 °F /  3.8 °C 35.9 °F /  2.2 °C 30.24 in /  1023.9 hPa NW 2.3 mph /  3.7 km/h   89 % 0.00 in /  0 mm
08:00 38.8 °F /  3.8 °C 35.9 °F /  2.2 °C 30.24 in /  1023.9 hPa NE 2.6 mph /  4.2 km/h 2.6 mph /  4.2 km/h 89 % 0.00 in /  0 mm
08:05 38.8 °F /  3.8 °C 35.9 °F /  2.2 °C 30.27 in /  1024.9 hPa ENE 3.1 mph /  5 km/h 3.1 mph /  5 km/h 89 % 0.00 in /  0 mm
08:10 38.8 °F /  3.8 °C 35.9 °F /  2.2 °C 30.27 in /  1024.9 hPa ENE 3.5 mph /  5.6 km/h 3.5 mph /  5.6 km/h 89 % 0.00 in /  0 mm
08:15 38.8 °F /  3.8 °C 35.9 °F /  2.2 °C 30.27 in /  1024.9 hPa NNW 1.2 mph /  1.9 km/h   89 % 0.00 in /  0 mm
08:20 38.8 °F /  3.8 °C 35.9 °F /  2.2 °C 30.27 in /  1024.9 hPa Calm     89 % 0.00 in /  0 mm
08:25 38.8 °F /  3.8 °C 35.9 °F /  2.2 °C 30.27 in /  1024.9 hPa NW 1.6 mph /  2.6 km/h   89 % 0.00 in /  0 mm
08:30 39.0 °F /  3.9 °C 36.1 °F /  2.3 °C 30.27 in /  1024.9 hPa NNE 3.5 mph /  5.6 km/h 3.5 mph /  5.6 km/h 89 % 0.00 in /  0 mm
08:35 39.0 °F /  3.9 °C 36.1 °F /  2.3 °C 30.30 in /  1026 hPa NNE 2.3 mph /  3.7 km/h 2.3 mph /  3.7 km/h 89 % 0.00 in /  0 mm
08:40 39.0 °F /  3.9 °C 36.1 °F /  2.3 °C 30.30 in /  1026 hPa NNE 1.2 mph /  1.9 km/h 1.2 mph /  1.9 km/h 89 % 0.00 in /  0 mm
08:45 39.0 °F /  3.9 °C 36.1 °F /  2.3 °C 30.30 in /  1026 hPa NNE 3.5 mph /  5.6 km/h   89 % 0.00 in /  0 mm
08:50 39.0 °F /  3.9 °C 36.1 °F /  2.3 °C 30.30 in /  1026 hPa NNE 3.5 mph /  5.6 km/h 3.5 mph /  5.6 km/h 89 % 0.00 in /  0 mm
08:55 39.2 °F /  4 °C 36.2 °F /  2.3 °C 30.30 in /  1026 hPa NNE 3.3 mph /  5.3 km/h 3.3 mph /  5.3 km/h 89 % 0.00 in /  0 mm
09:00 39.2 °F /  4 °C 36.2 °F /  2.3 °C 30.30 in /  1026 hPa NE 1.2 mph /  1.9 km/h 1.2 mph /  1.9 km/h 89 % 0.00 in /  0 mm
09:05 39.2 °F /  4 °C 35.9 °F /  2.2 °C 30.30 in /  1026 hPa NW 2.3 mph /  3.7 km/h   88 % 0.00 in /  0 mm
09:10 39.2 °F /  4 °C 35.9 °F /  2.2 °C 30.30 in /  1026 hPa NNE 2.4 mph /  3.9 km/h 2.4 mph /  3.9 km/h 88 % 0.00 in /  0 mm
09:15 39.4 °F /  4.1 °C 36.1 °F /  2.3 °C 30.30 in /  1026 hPa Calm   0.9 mph /  1.4 km/h 88 % 0.00 in /  0 mm
09:20 39.6 °F /  4.2 °C 36.3 °F /  2.4 °C 30.30 in /  1026 hPa SW 1.2 mph /  1.9 km/h   88 % 0.00 in /  0 mm
09:25 39.7 °F /  4.3 °C 36.8 °F /  2.7 °C 30.30 in /  1026 hPa Calm     89 % 0.00 in /  0 mm
09:30 39.7 °F /  4.3 °C 36.8 °F /  2.7 °C 30.30 in /  1026 hPa Calm     89 % 0.00 in /  0 mm
09:35 39.7 °F /  4.3 °C 36.8 °F /  2.7 °C 30.30 in /  1026 hPa Calm     89 % 0.00 in /  0 mm
09:40 39.9 °F /  4.4 °C 36.9 °F /  2.7 °C 30.30 in /  1026 hPa Calm     89 % 0.00 in /  0 mm
09:45 40.1 °F /  4.5 °C 37.1 °F /  2.8 °C 30.30 in /  1026 hPa SW 2.0 mph /  3.2 km/h   89 % 0.00 in /  0 mm
09:50 40.3 °F /  4.6 °C 37.3 °F /  2.9 °C 30.33 in /  1027 hPa SW 0.9 mph /  1.4 km/h   89 % 0.00 in /  0 mm
09:55 40.3 °F /  4.6 °C 37.3 °F /  2.9 °C 30.33 in /  1027 hPa SW 2.9 mph /  4.7 km/h 2.9 mph /  4.7 km/h 89 % 0.00 in /  0 mm
10:00 40.5 °F /  4.7 °C 37.5 °F /  3.1 °C 30.33 in /  1027 hPa NNE 3.5 mph /  5.6 km/h 3.5 mph /  5.6 km/h 89 % 0.00 in /  0 mm
10:05 40.6 °F /  4.8 °C 37.7 °F /  3.2 °C 30.33 in /  1027 hPa NNE 2.3 mph /  3.7 km/h 2.3 mph /  3.7 km/h 89 % 0.00 in /  0 mm
10:10 40.6 °F /  4.8 °C 37.7 °F /  3.2 °C 30.33 in /  1027 hPa NNE 2.3 mph /  3.7 km/h 2.3 mph /  3.7 km/h 89 % 0.00 in /  0 mm
10:15 40.6 °F /  4.8 °C 37.7 °F /  3.2 °C 30.33 in /  1027 hPa Calm     89 % 0.00 in /  0 mm
10:20 40.8 °F /  4.9 °C 37.8 °F /  3.2 °C 30.36 in /  1028 hPa Calm     89 % 0.00 in /  0 mm
10:25 41.0 °F /  5 °C 38.0 °F /  3.3 °C 30.36 in /  1028 hPa North 2.0 mph /  3.2 km/h 3.0 mph /  4.8 km/h 89 % 0.00 in /  0 mm
10:30 41.2 °F /  5.1 °C 38.2 °F /  3.4 °C 30.36 in /  1028 hPa NNE 1.0 mph /  1.6 km/h 3.0 mph /  4.8 km/h 89 % 0.00 in /  0 mm
10:35 41.2 °F /  5.1 °C 37.9 °F /  3.3 °C 30.33 in /  1027 hPa NE 4.6 mph /  7.4 km/h 4.6 mph /  7.4 km/h 88 % 0.00 in /  0 mm
10:40 41.4 °F /  5.2 °C 38.1 °F /  3.4 °C 30.33 in /  1027 hPa NE 1.2 mph /  1.9 km/h   88 % 0.00 in /  0 mm
10:45 41.4 °F /  5.2 °C 37.8 °F /  3.2 °C 30.33 in /  1027 hPa NW 3.5 mph /  5.6 km/h 3.5 mph /  5.6 km/h 87 % 0.00 in /  0 mm
10:50 41.7 °F /  5.4 °C 38.1 °F /  3.4 °C 30.36 in /  1028 hPa NE 2.2 mph /  3.5 km/h 2.2 mph /  3.5 km/h 87 % 0.00 in /  0 mm
10:55 42.3 °F /  5.7 °C 38.7 °F /  3.7 °C 30.36 in /  1028 hPa WNW 1.2 mph /  1.9 km/h   87 % 0.00 in /  0 mm
11:00 42.6 °F /  5.9 °C 39.0 °F /  3.9 °C 30.36 in /  1028 hPa West 2.9 mph /  4.7 km/h   87 % 0.00 in /  0 mm
11:05 42.8 °F /  6 °C 39.2 °F /  4 °C 30.36 in /  1028 hPa West 4.6 mph /  7.4 km/h 4.6 mph /  7.4 km/h 87 % 0.00 in /  0 mm
11:10 43.2 °F /  6.2 °C 39.6 °F /  4.2 °C 30.36 in /  1028 hPa WSW 2.3 mph /  3.7 km/h   87 % 0.00 in /  0 mm
11:15 43.7 °F /  6.5 °C 40.1 °F /  4.5 °C 30.36 in /  1028 hPa Calm     87 % 0.00 in /  0 mm
11:20 44.1 °F /  6.7 °C 40.1 °F /  4.5 °C 30.36 in /  1028 hPa SW 2.4 mph /  3.9 km/h 2.4 mph /  3.9 km/h 86 % 0.00 in /  0 mm
11:25 44.8 °F /  7.1 °C 40.8 °F /  4.9 °C 30.36 in /  1028 hPa Calm     86 % 0.00 in /  0 mm
11:30 45.1 °F /  7.3 °C 40.9 °F /  4.9 °C 30.36 in /  1028 hPa West 2.3 mph /  3.7 km/h 2.3 mph /  3.7 km/h 85 % 0.00 in /  0 mm
11:35 45.9 °F /  7.7 °C 41.6 °F /  5.3 °C 30.36 in /  1028 hPa ENE 2.0 mph /  3.2 km/h 2.0 mph /  3.2 km/h 85 % 0.00 in /  0 mm
11:40 45.9 °F /  7.7 °C 41.3 °F /  5.2 °C 30.36 in /  1028 hPa ENE 1.2 mph /  1.9 km/h 1.2 mph /  1.9 km/h 84 % 0.00 in /  0 mm
11:45 46.4 °F /  8 °C 41.5 °F /  5.3 °C 30.36 in /  1028 hPa ESE 2.3 mph /  3.7 km/h   83 % 0.00 in /  0 mm
11:50 47.5 °F /  8.6 °C 42.3 °F /  5.7 °C 30.36 in /  1028 hPa ESE 4.6 mph /  7.4 km/h   82 % 0.00 in /  0 mm
11:55 48.9 °F /  9.4 °C 43.7 °F /  6.5 °C 30.36 in /  1028 hPa WSW 3.8 mph /  6.1 km/h 3.8 mph /  6.1 km/h 82 % 0.00 in /  0 mm
12:00 48.7 °F /  9.3 °C 43.2 °F /  6.2 °C 30.36 in /  1028 hPa SW 2.9 mph /  4.7 km/h 2.9 mph /  4.7 km/h 81 % 0.00 in /  0 mm
12:05 49.8 °F /  9.9 °C 43.6 °F /  6.4 °C 30.36 in /  1028 hPa South 2.3 mph /  3.7 km/h 2.3 mph /  3.7 km/h 79 % 0.00 in /  0 mm
12:10 50.4 °F /  10.2 °C 43.8 °F /  6.6 °C 30.36 in /  1028 hPa SW 3.5 mph /  5.6 km/h 3.5 mph /  5.6 km/h 78 % 0.00 in /  0 mm
12:15 49.6 °F /  9.8 °C 43.4 °F /  6.3 °C 30.36 in /  1028 hPa SE 3.5 mph /  5.6 km/h 3.5 mph /  5.6 km/h 79 % 0.00 in /  0 mm
12:20 49.8 °F /  9.9 °C 42.6 °F /  5.9 °C 30.36 in /  1028 hPa ESE 2.3 mph /  3.7 km/h 2.3 mph /  3.7 km/h 76 % 0.00 in /  0 mm
12:25 49.3 °F /  9.6 °C 41.7 °F /  5.4 °C 30.36 in /  1028 hPa ENE 3.8 mph /  6.1 km/h 3.8 mph /  6.1 km/h 75 % 0.00 in /  0 mm
12:30 49.1 °F /  9.5 °C 41.9 °F /  5.5 °C 30.36 in /  1028 hPa NNE 4.0 mph /  6.4 km/h 4.0 mph /  6.4 km/h 76 % 0.00 in /  0 mm
12:35 48.6 °F /  9.2 °C 41.7 °F /  5.4 °C 30.36 in /  1028 hPa NE 5.4 mph /  8.7 km/h 5.4 mph /  8.7 km/h 77 % 0.00 in /  0 mm
12:40 47.8 °F /  8.8 °C 40.6 °F /  4.8 °C 30.36 in /  1028 hPa NNE 3.5 mph /  5.6 km/h 3.5 mph /  5.6 km/h 76 % 0.00 in /  0 mm
12:45 47.7 °F /  8.7 °C 40.5 °F /  4.7 °C 30.36 in /  1028 hPa NNE 4.6 mph /  7.4 km/h 4.6 mph /  7.4 km/h 76 % 0.00 in /  0 mm
12:50 47.7 °F /  8.7 °C 40.1 °F /  4.5 °C 30.39 in /  1029 hPa NNE 3.5 mph /  5.6 km/h 3.5 mph /  5.6 km/h 75 % 0.00 in /  0 mm
12:55 47.7 °F /  8.7 °C 39.8 °F /  4.3 °C 30.39 in /  1029 hPa NE 8.7 mph /  14 km/h 8.7 mph /  14 km/h 74 % 0.00 in /  0 mm
13:00 47.5 °F /  8.6 °C 39.3 °F /  4.1 °C 30.39 in /  1029 hPa NNE 8.1 mph /  13 km/h 8.1 mph /  13 km/h 73 % 0.00 in /  0 mm
13:05 47.7 °F /  8.7 °C 39.4 °F /  4.1 °C 30.36 in /  1028 hPa NNE 6.4 mph /  10.3 km/h 6.4 mph /  10.3 km/h 73 % 0.00 in /  0 mm
13:10 47.8 °F /  8.8 °C 39.6 °F /  4.2 °C 30.36 in /  1028 hPa WNW 4.6 mph /  7.4 km/h 4.6 mph /  7.4 km/h 73 % 0.00 in /  0 mm
13:15 48.0 °F /  8.9 °C 39.4 °F /  4.1 °C 30.36 in /  1028 hPa NNE 8.1 mph /  13 km/h 8.1 mph /  13 km/h 72 % 0.00 in /  0 mm
13:20 47.8 °F /  8.8 °C 38.9 °F /  3.8 °C 30.36 in /  1028 hPa NNE 5.4 mph /  8.7 km/h 5.4 mph /  8.7 km/h 71 % 0.00 in /  0 mm
13:25 48.4 °F /  9.1 °C 39.8 °F /  4.3 °C 30.36 in /  1028 hPa ENE 2.9 mph /  4.7 km/h 2.9 mph /  4.7 km/h 72 % 0.00 in /  0 mm
13:30 48.6 °F /  9.2 °C 39.6 °F /  4.2 °C 30.36 in /  1028 hPa NNE 6.2 mph /  10 km/h 6.2 mph /  10 km/h 71 % 0.00 in /  0 mm
13:35 48.6 °F /  9.2 °C 39.2 °F /  4 °C 30.36 in /  1028 hPa ENE 6.9 mph /  11.1 km/h 6.9 mph /  11.1 km/h 70 % 0.00 in /  0 mm
13:40 49.1 °F /  9.5 °C 39.7 °F /  4.3 °C 30.36 in /  1028 hPa NE 4.6 mph /  7.4 km/h 4.6 mph /  7.4 km/h 70 % 0.00 in /  0 mm
13:45 49.1 °F /  9.5 °C 39.7 °F /  4.3 °C 30.36 in /  1028 hPa WSW 5.8 mph /  9.3 km/h 5.8 mph /  9.3 km/h 70 % 0.00 in /  0 mm
13:50 49.6 °F /  9.8 °C 40.3 °F /  4.6 °C 30.36 in /  1028 hPa NE 3.1 mph /  5 km/h 3.1 mph /  5 km/h 70 % 0.00 in /  0 mm
13:55 49.5 °F /  9.7 °C 39.7 °F /  4.3 °C 30.36 in /  1028 hPa NNE 5.8 mph /  9.3 km/h 5.8 mph /  9.3 km/h 69 % 0.00 in /  0 mm
14:00 49.3 °F /  9.6 °C 39.2 °F /  4 °C 30.36 in /  1028 hPa NNE 4.6 mph /  7.4 km/h 4.6 mph /  7.4 km/h 68 % 0.00 in /  0 mm
14:05 49.8 °F /  9.9 °C 39.7 °F /  4.3 °C 30.36 in /  1028 hPa NNE 2.4 mph /  3.9 km/h 3.1 mph /  5 km/h 68 % 0.00 in /  0 mm
14:10 50.0 °F /  10 °C 39.8 °F /  4.3 °C 30.36 in /  1028 hPa ENE 3.5 mph /  5.6 km/h 3.5 mph /  5.6 km/h 68 % 0.00 in /  0 mm
14:15 50.2 °F /  10.1 °C 39.3 °F /  4.1 °C 30.36 in /  1028 hPa NNE 3.6 mph /  5.8 km/h 3.6 mph /  5.8 km/h 66 % 0.00 in /  0 mm
14:20 50.4 °F /  10.2 °C 39.4 °F /  4.1 °C 30.36 in /  1028 hPa NW 2.4 mph /  3.9 km/h 2.4 mph /  3.9 km/h 66 % 0.00 in /  0 mm
14:25 50.7 °F /  10.4 °C 40.2 °F /  4.6 °C 30.36 in /  1028 hPa NNE 3.5 mph /  5.6 km/h 3.5 mph /  5.6 km/h 67 % 0.00 in /  0 mm
14:30 51.1 °F /  10.6 °C 40.1 °F /  4.5 °C 30.36 in /  1028 hPa NNE 1.4 mph /  2.3 km/h   66 % 0.00 in /  0 mm
14:35 51.1 °F /  10.6 °C 40.5 °F /  4.7 °C 30.36 in /  1028 hPa NNW 2.3 mph /  3.7 km/h 2.3 mph /  3.7 km/h 67 % 0.00 in /  0 mm
14:40 51.4 °F /  10.8 °C 40.5 °F /  4.7 °C 30.36 in /  1028 hPa NNE 2.3 mph /  3.7 km/h   66 % 0.00 in /  0 mm
14:45 51.4 °F /  10.8 °C 40.5 °F /  4.7 °C 30.36 in /  1028 hPa NNE 2.3 mph /  3.7 km/h 2.3 mph /  3.7 km/h 66 % 0.00 in /  0 mm
14:50 51.4 °F /  10.8 °C 40.5 °F /  4.7 °C 30.36 in /  1028 hPa NW 1.2 mph /  1.9 km/h 1.6 mph /  2.6 km/h 66 % 0.00 in /  0 mm
14:55 51.4 °F /  10.8 °C 40.5 °F /  4.7 °C 30.36 in /  1028 hPa NE 4.6 mph /  7.4 km/h 4.6 mph /  7.4 km/h 66 % 0.00 in /  0 mm
15:00 51.3 °F /  10.7 °C 39.5 °F /  4.2 °C 30.36 in /  1028 hPa ENE 2.6 mph /  4.2 km/h 2.6 mph /  4.2 km/h 64 % 0.00 in /  0 mm
15:05 51.3 °F /  10.7 °C 39.9 °F /  4.4 °C 30.39 in /  1029 hPa NNE 2.6 mph /  4.2 km/h 2.6 mph /  4.2 km/h 65 % 0.00 in /  0 mm
15:10 51.1 °F /  10.6 °C 39.7 °F /  4.3 °C 30.39 in /  1029 hPa ENE 4.6 mph /  7.4 km/h 4.6 mph /  7.4 km/h 65 % 0.00 in /  0 mm
15:15 50.9 °F /  10.5 °C 39.5 °F /  4.2 °C 30.39 in /  1029 hPa NE 3.8 mph /  6.1 km/h 3.8 mph /  6.1 km/h 65 % 0.00 in /  0 mm
15:20 50.7 °F /  10.4 °C 39.4 °F /  4.1 °C 30.39 in /  1029 hPa NNE 3.5 mph /  5.6 km/h 3.5 mph /  5.6 km/h 65 % 0.00 in /  0 mm
15:25 50.4 °F /  10.2 °C 39.4 °F /  4.1 °C 30.39 in /  1029 hPa NNE 4.7 mph /  7.6 km/h 4.7 mph /  7.6 km/h 66 % 0.00 in /  0 mm
15:30 50.4 °F /  10.2 °C 39.4 °F /  4.1 °C 30.39 in /  1029 hPa NNE 4.9 mph /  7.9 km/h 4.9 mph /  7.9 km/h 66 % 0.00 in /  0 mm
15:35 50.4 °F /  10.2 °C 39.4 °F /  4.1 °C 30.39 in /  1029 hPa North 3.5 mph /  5.6 km/h   66 % 0.00 in /  0 mm
15:40 50.4 °F /  10.2 °C 39.4 °F /  4.1 °C 30.39 in /  1029 hPa Calm     66 % 0.00 in /  0 mm
15:45 50.4 °F /  10.2 °C 39.4 °F /  4.1 °C 30.39 in /  1029 hPa NNE 2.3 mph /  3.7 km/h 2.3 mph /  3.7 km/h 66 % 0.00 in /  0 mm
15:50 50.4 °F /  10.2 °C 39.4 °F /  4.1 °C 30.42 in /  1030 hPa NNE 2.3 mph /  3.7 km/h 2.3 mph /  3.7 km/h 66 % 0.00 in /  0 mm
15:55 50.2 °F /  10.1 °C 39.3 °F /  4.1 °C 30.42 in /  1030 hPa NNE 3.5 mph /  5.6 km/h 3.5 mph /  5.6 km/h 66 % 0.00 in /  0 mm
16:00 50.4 °F /  10.2 °C 39.8 °F /  4.3 °C 30.42 in /  1030 hPa NNE 2.3 mph /  3.7 km/h   67 % 0.00 in /  0 mm
16:05 50.2 °F /  10.1 °C 39.6 °F /  4.2 °C 30.42 in /  1030 hPa NNW 2.3 mph /  3.7 km/h 2.3 mph /  3.7 km/h 67 % 0.00 in /  0 mm
16:10 50.0 °F /  10 °C 39.5 °F /  4.2 °C 30.42 in /  1030 hPa North 1.2 mph /  1.9 km/h   67 % 0.00 in /  0 mm
16:15 50.0 °F /  10 °C 39.5 °F /  4.2 °C 30.42 in /  1030 hPa NNE 1.2 mph /  1.9 km/h 1.2 mph /  1.9 km/h 67 % 0.00 in /  0 mm
16:20 49.8 °F /  9.9 °C 39.3 °F /  4.1 °C 30.42 in /  1030 hPa NNE 2.3 mph /  3.7 km/h 2.3 mph /  3.7 km/h 67 % 0.00 in /  0 mm
16:25 49.6 °F /  9.8 °C 39.5 °F /  4.2 °C 30.42 in /  1030 hPa North 2.3 mph /  3.7 km/h 2.3 mph /  3.7 km/h 68 % 0.00 in /  0 mm
16:30 49.6 °F /  9.8 °C 39.1 °F /  3.9 °C 30.42 in /  1030 hPa North 1.2 mph /  1.9 km/h 1.2 mph /  1.9 km/h 67 % 0.00 in /  0 mm
16:35 49.5 °F /  9.7 °C 39.3 °F /  4.1 °C 30.42 in /  1030 hPa North 1.2 mph /  1.9 km/h 1.2 mph /  1.9 km/h 68 % 0.00 in /  0 mm
16:40 49.3 °F /  9.6 °C 39.2 °F /  4 °C 30.42 in /  1030 hPa NNE 2.3 mph /  3.7 km/h 2.3 mph /  3.7 km/h 68 % 0.00 in /  0 mm
16:45 49.3 °F /  9.6 °C 39.2 °F /  4 °C 30.42 in /  1030 hPa NNE 1.2 mph /  1.9 km/h 1.4 mph /  2.3 km/h 68 % 0.00 in /  0 mm
16:50 49.3 °F /  9.6 °C 39.2 °F /  4 °C 30.42 in /  1030 hPa NNE 1.2 mph /  1.9 km/h   68 % 0.00 in /  0 mm
16:55 49.3 °F /  9.6 °C 39.2 °F /  4 °C 30.42 in /  1030 hPa NNE 1.2 mph /  1.9 km/h   68 % 0.00 in /  0 mm
17:00 49.3 °F /  9.6 °C 39.2 °F /  4 °C 30.42 in /  1030 hPa Calm     68 % 0.00 in /  0 mm
17:05 49.1 °F /  9.5 °C 39.0 °F /  3.9 °C 30.42 in /  1030 hPa NNE 2.3 mph /  3.7 km/h 2.3 mph /  3.7 km/h 68 % 0.00 in /  0 mm
17:10 49.1 °F /  9.5 °C 39.0 °F /  3.9 °C 30.42 in /  1030 hPa NNE 1.2 mph /  1.9 km/h   68 % 0.00 in /  0 mm
17:15 48.9 °F /  9.4 °C 39.2 °F /  4 °C 30.42 in /  1030 hPa NNE 1.2 mph /  1.9 km/h 1.2 mph /  1.9 km/h 69 % 0.00 in /  0 mm
17:20 48.7 °F /  9.3 °C 39.0 °F /  3.9 °C 30.44 in /  1030.7 hPa NNE 2.3 mph /  3.7 km/h 2.3 mph /  3.7 km/h 69 % 0.00 in /  0 mm
17:25 48.7 °F /  9.3 °C 39.0 °F /  3.9 °C 30.44 in /  1030.7 hPa NNE 1.4 mph /  2.3 km/h   69 % 0.00 in /  0 mm
17:27 48.6 °F /  9.2 °C 38.8 °F /  3.8 °C 30.44 in /  1030.7 hPa NNE 2.3 mph /  3.7 km/h 2.3 mph /  3.7 km/h 69 % 0.00 in /  0 mm
17:32 48.6 °F /  9.2 °C 38.8 °F /  3.8 °C 30.44 in /  1030.7 hPa North 1.2 mph /  1.9 km/h 1.2 mph /  1.9 km/h 69 % 0.00 in /  0 mm
17:37 48.6 °F /  9.2 °C 38.8 °F /  3.8 °C 30.44 in /  1030.7 hPa Calm   0.9 mph /  1.4 km/h 69 % 0.00 in /  0 mm
17:42 48.6 °F /  9.2 °C 38.8 °F /  3.8 °C 30.44 in /  1030.7 hPa North 3.5 mph /  5.6 km/h 3.5 mph /  5.6 km/h 69 % 0.00 in /  0 mm
17:47 48.6 °F /  9.2 °C 38.8 °F /  3.8 °C 30.44 in /  1030.7 hPa North 2.3 mph /  3.7 km/h   69 % 0.00 in /  0 mm
17:52 48.6 °F /  9.2 °C 38.8 °F /  3.8 °C 30.44 in /  1030.7 hPa NNW 2.3 mph /  3.7 km/h 2.3 mph /  3.7 km/h 69 % 0.00 in /  0 mm
17:57 48.6 °F /  9.2 °C 38.8 °F /  3.8 °C 30.44 in /  1030.7 hPa NNW 1.2 mph /  1.9 km/h   69 % 0.00 in /  0 mm
18:02 48.6 °F /  9.2 °C 38.8 °F /  3.8 °C 30.44 in /  1030.7 hPa Calm   0.9 mph /  1.4 km/h 69 % 0.00 in /  0 mm
18:07 48.6 °F /  9.2 °C 38.8 °F /  3.8 °C 30.44 in /  1030.7 hPa NNW 0.9 mph /  1.4 km/h   69 % 0.00 in /  0 mm
18:12 48.6 °F /  9.2 °C 38.8 °F /  3.8 °C 30.44 in /  1030.7 hPa NNW 2.3 mph /  3.7 km/h 2.3 mph /  3.7 km/h 69 % 0.00 in /  0 mm
18:17 48.4 °F /  9.1 °C 38.7 °F /  3.7 °C 30.44 in /  1030.7 hPa NNW 1.4 mph /  2.3 km/h 1.4 mph /  2.3 km/h 69 % 0.00 in /  0 mm
18:22 48.4 °F /  9.1 °C 38.7 °F /  3.7 °C 30.44 in /  1030.7 hPa NW 1.4 mph /  2.3 km/h   69 % 0.00 in /  0 mm
18:27 48.4 °F /  9.1 °C 38.7 °F /  3.7 °C 30.44 in /  1030.7 hPa NW 2.3 mph /  3.7 km/h 2.3 mph /  3.7 km/h 69 % 0.00 in /  0 mm
18:30 46.4 °F /  8 °C 37.5 °F /  3.1 °C 30.53 in /  1033.7 hPa Calm   1.0 mph /  1.6 km/h 71 % 0.00 in /  0 mm
18:32 48.4 °F /  9.1 °C 38.7 °F /  3.7 °C 30.44 in /  1030.7 hPa NW 1.2 mph /  1.9 km/h   69 % 0.00 in /  0 mm
18:37 48.2 °F /  9 °C 38.5 °F /  3.6 °C 30.44 in /  1030.7 hPa NW 1.2 mph /  1.9 km/h   69 % 0.00 in /  0 mm
18:40 46.4 °F /  8 °C 37.5 °F /  3.1 °C 30.53 in /  1033.7 hPa Calm   1.0 mph /  1.6 km/h 71 % 0.00 in /  0 mm
18:42 48.2 °F /  9 °C 38.5 °F /  3.6 °C 30.44 in /  1030.7 hPa NW 1.2 mph /  1.9 km/h   69 % 0.00 in /  0 mm
18:47 48.0 °F /  8.9 °C 38.3 °F /  3.5 °C 30.44 in /  1030.7 hPa NW 1.2 mph /  1.9 km/h 1.4 mph /  2.3 km/h 69 % 0.00 in /  0 mm
18:50 46.8 °F /  8.2 °C 37.5 °F /  3.1 °C 30.53 in /  1033.7 hPa NE 2.0 mph /  3.2 km/h 3.0 mph /  4.8 km/h 70 % 0.00 in /  0 mm
18:52 48.0 °F /  8.9 °C 38.3 °F /  3.5 °C 30.44 in /  1030.7 hPa NW 2.3 mph /  3.7 km/h   69 % 0.00 in /  0 mm
18:57 48.0 °F /  8.9 °C 38.3 °F /  3.5 °C 30.44 in /  1030.7 hPa NW 1.2 mph /  1.9 km/h   69 % 0.00 in /  0 mm
19:00 46.9 °F /  8.3 °C 37.7 °F /  3.2 °C 30.53 in /  1033.7 hPa NE 1.0 mph /  1.6 km/h 2.0 mph /  3.2 km/h 70 % 0.00 in /  0 mm
19:02 48.0 °F /  8.9 °C 38.3 °F /  3.5 °C 30.44 in /  1030.7 hPa Calm     69 % 0.00 in /  0 mm
19:07 47.8 °F /  8.8 °C 38.5 °F /  3.6 °C 30.44 in /  1030.7 hPa Calm     70 % 0.00 in /  0 mm
19:10 47.3 °F /  8.5 °C 37.6 °F /  3.1 °C 30.50 in /  1032.7 hPa NE 2.0 mph /  3.2 km/h 2.0 mph /  3.2 km/h 69 % 0.00 in /  0 mm
19:12 47.8 °F /  8.8 °C 38.5 °F /  3.6 °C 30.44 in /  1030.7 hPa Calm     70 % 0.00 in /  0 mm
19:17 47.8 °F /  8.8 °C 38.5 °F /  3.6 °C 30.44 in /  1030.7 hPa NW 1.2 mph /  1.9 km/h 1.2 mph /  1.9 km/h 70 % 0.00 in /  0 mm
19:20 47.5 °F /  8.6 °C 37.8 °F /  3.2 °C 30.50 in /  1032.7 hPa NE 2.0 mph /  3.2 km/h 2.0 mph /  3.2 km/h 69 % 0.00 in /  0 mm
19:22 47.7 °F /  8.7 °C 38.4 °F /  3.6 °C 30.44 in /  1030.7 hPa Calm     70 % 0.00 in /  0 mm
19:27 47.7 °F /  8.7 °C 38.4 °F /  3.6 °C 30.44 in /  1030.7 hPa Calm     70 % 0.00 in /  0 mm
19:30 47.7 °F /  8.7 °C 37.6 °F /  3.1 °C 30.50 in /  1032.7 hPa NE 2.0 mph /  3.2 km/h 3.0 mph /  4.8 km/h 68 % 0.00 in /  0 mm
19:32 47.7 °F /  8.7 °C 38.0 °F /  3.3 °C 30.48 in /  1032.1 hPa Calm     69 % 0.00 in /  0 mm
19:50 47.5 °F /  8.6 °C 37.4 °F /  3 °C 30.53 in /  1033.7 hPa Calm   2.0 mph /  3.2 km/h 68 % 0.00 in /  0 mm
20:00 47.5 °F /  8.6 °C 37.4 °F /  3 °C 30.53 in /  1033.7 hPa Calm   1.0 mph /  1.6 km/h 68 % 0.00 in /  0 mm
20:10 47.7 °F /  8.7 °C 37.6 °F /  3.1 °C 30.53 in /  1033.7 hPa NE 1.0 mph /  1.6 km/h 2.0 mph /  3.2 km/h 68 % 0.00 in /  0 mm
20:14 46.6 °F /  8.1 °C 37.0 °F /  2.8 °C 30.48 in /  1032.1 hPa NW 1.2 mph /  1.9 km/h   69 % 0.00 in /  0 mm
20:19 46.6 °F /  8.1 °C 37.0 °F /  2.8 °C 30.48 in /  1032.1 hPa NW 2.9 mph /  4.7 km/h 2.9 mph /  4.7 km/h 69 % 0.00 in /  0 mm
20:20 48.0 °F /  8.9 °C 38.0 °F /  3.3 °C 30.53 in /  1033.7 hPa NE 2.0 mph /  3.2 km/h 3.0 mph /  4.8 km/h 68 % 0.00 in /  0 mm
20:24 46.6 °F /  8.1 °C 37.0 °F /  2.8 °C 30.48 in /  1032.1 hPa Calm     69 % 0.00 in /  0 mm
20:29 46.6 °F /  8.1 °C 37.3 °F /  2.9 °C 30.48 in /  1032.1 hPa NW 1.2 mph /  1.9 km/h   70 % 0.00 in /  0 mm
20:30 48.0 °F /  8.9 °C 37.6 °F /  3.1 °C 30.53 in /  1033.7 hPa NE 1.0 mph /  1.6 km/h 3.0 mph /  4.8 km/h 67 % 0.00 in /  0 mm
20:34 46.4 °F /  8 °C 37.1 °F /  2.8 °C 30.48 in /  1032.1 hPa NW 1.2 mph /  1.9 km/h   70 % 0.00 in /  0 mm
20:39 46.2 °F /  7.9 °C 37.0 °F /  2.8 °C 30.48 in /  1032.1 hPa Calm     70 % 0.00 in /  0 mm
20:40 47.5 °F /  8.6 °C 37.4 °F /  3 °C 30.53 in /  1033.7 hPa NE 2.0 mph /  3.2 km/h 2.0 mph /  3.2 km/h 68 % 0.00 in /  0 mm
20:44 46.2 °F /  7.9 °C 37.0 °F /  2.8 °C 30.48 in /  1032.1 hPa NW 1.2 mph /  1.9 km/h 1.2 mph /  1.9 km/h 70 % 0.00 in /  0 mm
20:49 46.2 °F /  7.9 °C 37.0 °F /  2.8 °C 30.48 in /  1032.1 hPa NW 1.2 mph /  1.9 km/h 1.2 mph /  1.9 km/h 70 % 0.00 in /  0 mm
20:50 46.9 °F /  8.3 °C 37.3 °F /  2.9 °C 30.53 in /  1033.7 hPa NE 2.0 mph /  3.2 km/h 2.0 mph /  3.2 km/h 69 % 0.00 in /  0 mm
20:54 46.2 °F /  7.9 °C 37.0 °F /  2.8 °C 30.48 in /  1032.1 hPa NE 1.2 mph /  1.9 km/h 2.0 mph /  3.2 km/h 70 % 0.00 in /  0 mm
20:59 46.4 °F /  8 °C 37.1 °F /  2.8 °C 30.48 in /  1032.1 hPa NE 3.5 mph /  5.6 km/h 3.5 mph /  5.6 km/h 70 % 0.00 in /  0 mm
21:00 46.6 °F /  8.1 °C 37.0 °F /  2.8 °C 30.53 in /  1033.7 hPa Calm   2.0 mph /  3.2 km/h 69 % 0.00 in /  0 mm
21:04 46.4 °F /  8 °C 37.1 °F /  2.8 °C 30.48 in /  1032.1 hPa NE 3.5 mph /  5.6 km/h 3.5 mph /  5.6 km/h 70 % 0.00 in /  0 mm
21:09 46.0 °F /  7.8 °C 36.8 °F /  2.7 °C 30.48 in /  1032.1 hPa NE 2.0 mph /  3.2 km/h   70 % 0.00 in /  0 mm
21:10 46.4 °F /  8 °C 36.8 °F /  2.7 °C 30.53 in /  1033.7 hPa Calm     69 % 0.00 in /  0 mm
21:14 45.9 °F /  7.7 °C 37.0 °F /  2.8 °C 30.48 in /  1032.1 hPa NE 1.2 mph /  1.9 km/h   71 % 0.00 in /  0 mm
21:19 45.9 °F /  7.7 °C 37.0 °F /  2.8 °C 30.50 in /  1032.7 hPa NE 2.3 mph /  3.7 km/h 2.3 mph /  3.7 km/h 71 % 0.00 in /  0 mm
21:20 46.2 °F /  7.9 °C 36.6 °F /  2.6 °C 30.53 in /  1033.7 hPa Calm   1.0 mph /  1.6 km/h 69 % 0.00 in /  0 mm
21:24 46.0 °F /  7.8 °C 37.2 °F /  2.9 °C 30.50 in /  1032.7 hPa NE 2.3 mph /  3.7 km/h   71 % 0.00 in /  0 mm
21:30 46.2 °F /  7.9 °C 37.3 °F /  2.9 °C 30.50 in /  1032.7 hPa NE 2.3 mph /  3.7 km/h 2.3 mph /  3.7 km/h 71 % 0.00 in /  0 mm
21:35 46.4 °F /  8 °C 37.5 °F /  3.1 °C 30.50 in /  1032.7 hPa NE 2.9 mph /  4.7 km/h 2.9 mph /  4.7 km/h 71 % 0.00 in /  0 mm
21:40 46.6 °F /  8.1 °C 37.3 °F /  2.9 °C 30.50 in /  1032.7 hPa NE 2.4 mph /  3.9 km/h 2.6 mph /  4.2 km/h 70 % 0.00 in /  0 mm
21:45 46.6 °F /  8.1 °C 37.3 °F /  2.9 °C 30.50 in /  1032.7 hPa NE 2.4 mph /  3.9 km/h 2.4 mph /  3.9 km/h 70 % 0.00 in /  0 mm
21:50 46.4 °F /  8 °C 37.1 °F /  2.8 °C 30.50 in /  1032.7 hPa NE 2.6 mph /  4.2 km/h 2.6 mph /  4.2 km/h 70 % 0.00 in /  0 mm
21:55 46.4 °F /  8 °C 37.1 °F /  2.8 °C 30.50 in /  1032.7 hPa NE 1.2 mph /  1.9 km/h   70 % 0.00 in /  0 mm
22:00 46.4 °F /  8 °C 37.1 °F /  2.8 °C 30.50 in /  1032.7 hPa NE 1.0 mph /  1.6 km/h 3.0 mph /  4.8 km/h 70 % 0.00 in /  0 mm
22:05 46.6 °F /  8.1 °C 37.3 °F /  2.9 °C 30.50 in /  1032.7 hPa NE 1.2 mph /  1.9 km/h   70 % 0.00 in /  0 mm
22:10 46.6 °F /  8.1 °C 37.3 °F /  2.9 °C 30.50 in /  1032.7 hPa NE 2.3 mph /  3.7 km/h 2.3 mph /  3.7 km/h 70 % 0.00 in /  0 mm
22:15 46.6 °F /  8.1 °C 37.3 °F /  2.9 °C 30.50 in /  1032.7 hPa Calm     70 % 0.00 in /  0 mm
22:20 46.6 °F /  8.1 °C 37.7 °F /  3.2 °C 30.50 in /  1032.7 hPa Calm     71 % 0.00 in /  0 mm
22:25 46.4 °F /  8 °C 37.5 °F /  3.1 °C 30.50 in /  1032.7 hPa Calm     71 % 0.00 in /  0 mm
22:30 46.4 °F /  8 °C 37.5 °F /  3.1 °C 30.50 in /  1032.7 hPa Calm     71 % 0.00 in /  0 mm
22:35 46.4 °F /  8 °C 37.9 °F /  3.3 °C 30.50 in /  1032.7 hPa Calm     72 % 0.00 in /  0 mm
22:40 46.4 °F /  8 °C 37.9 °F /  3.3 °C 30.50 in /  1032.7 hPa Calm     72 % 0.00 in /  0 mm
22:45 46.2 °F /  7.9 °C 37.7 °F /  3.2 °C 30.50 in /  1032.7 hPa Calm     72 % 0.00 in /  0 mm
22:50 46.2 °F /  7.9 °C 37.7 °F /  3.2 °C 30.50 in /  1032.7 hPa Calm     72 % 0.00 in /  0 mm
22:55 46.0 °F /  7.8 °C 37.5 °F /  3.1 °C 30.50 in /  1032.7 hPa Calm     72 % 0.00 in /  0 mm
23:00 46.2 °F /  7.9 °C 37.3 °F /  2.9 °C 30.50 in /  1032.7 hPa NE 3.5 mph /  5.6 km/h 3.5 mph /  5.6 km/h 71 % 0.00 in /  0 mm
23:05 46.2 °F /  7.9 °C 37.3 °F /  2.9 °C 30.53 in /  1033.7 hPa NE 4.6 mph /  7.4 km/h 4.6 mph /  7.4 km/h 71 % 0.00 in /  0 mm
23:10 46.2 °F /  7.9 °C 37.3 °F /  2.9 °C 30.53 in /  1033.7 hPa NE 1.2 mph /  1.9 km/h 1.2 mph /  1.9 km/h 71 % 0.00 in /  0 mm
23:15 46.0 °F /  7.8 °C 37.2 °F /  2.9 °C 30.53 in /  1033.7 hPa NE 3.5 mph /  5.6 km/h 3.5 mph /  5.6 km/h 71 % 0.00 in /  0 mm
23:20 46.2 °F /  7.9 °C 37.3 °F /  2.9 °C 30.50 in /  1032.7 hPa NE 2.3 mph /  3.7 km/h 2.3 mph /  3.7 km/h 71 % 0.00 in /  0 mm
23:25 46.0 °F /  7.8 °C 37.2 °F /  2.9 °C 30.50 in /  1032.7 hPa NE 4.6 mph /  7.4 km/h 4.6 mph /  7.4 km/h 71 % 0.00 in /  0 mm
23:30 46.0 °F /  7.8 °C 37.2 °F /  2.9 °C 30.50 in /  1032.7 hPa NE 2.3 mph /  3.7 km/h 2.3 mph /  3.7 km/h 71 % 0.00 in /  0 mm
23:35 46.0 °F /  7.8 °C 37.2 °F /  2.9 °C 30.53 in /  1033.7 hPa NE 1.6 mph /  2.6 km/h   71 % 0.00 in /  0 mm
23:40 46.0 °F /  7.8 °C 37.2 °F /  2.9 °C 30.53 in /  1033.7 hPa NE 1.4 mph /  2.3 km/h   71 % 0.00 in /  0 mm
23:45 46.0 °F /  7.8 °C 37.2 °F /  2.9 °C 30.53 in /  1033.7 hPa NE 2.3 mph /  3.7 km/h 2.3 mph /  3.7 km/h 71 % 0.00 in /  0 mm
23:50 46.0 °F /  7.8 °C 37.2 °F /  2.9 °C 30.53 in /  1033.7 hPa NE 2.3 mph /  3.7 km/h 2.3 mph /  3.7 km/h 71 % 0.00 in /  0 mm
23:55 46.0 °F /  7.8 °C 37.2 °F /  2.9 °C 30.53 in /  1033.7 hPa Calm   0.9 mph /  1.4 km/h 71 % 0.00 in /  0 mm
Meteo Sesrovires
Elogis d' Weather Underground - 1.75 mb

Guio original per  Jim McMurry - jmcmurry@mwt.net Adaptat per a la plantilla per  Wim van der Kuil - Leuven-Template.eu

Trobareu la nostra informacio del temps tambe a:

Weather Underground

AWEKAS